24 juni 2022

Tijd Code Weer Temp. Zicht Plafond Wind METAR/SPECI
7:00 p.m.
V
55 °F 20 mi 12.000 ft 300° 300° 11 kt METAR CYEG 250100Z 30011KT 20SM FEW030TCU FEW100 BKN120 13/09 A3023 RMK TCU1AC2AC5 TCU TR SLP252 DENSITY ALT 2400FT
6:00 p.m.
V
57 °F 20 mi 12.000 ft 300° 300° 12 - 19 kt METAR CYEG 250000Z 30012G19KT 20SM FEW030TCU BKN120 14/08 A3023 RMK TCU1AC6 SLP252 DENSITY ALT 2500FT
5:00 p.m.
V
57 °F 20 mi 12.000 ft 310° 310° 13 - 18 kt METAR CYEG 242300Z 31013G18KT 20SM FEW030TCU BKN120 14/08 A3021 RMK TCU2AC5 VIRGA PTCHS SLP247 DENSITY ALT 2600FT
4:00 p.m.
V
57 °F 20 mi 10.000 ft 330° 330° 14 kt METAR CYEG 242200Z 33014KT 20SM SCT030TCU BKN100 BKN140 14/08 A3020 RMK TCU3AC3AC1 DIST SH NW SLP242 DENSITY ALT 2500FT
3:19 p.m.
V
57 °F 20 mi 3.000 ft 310° 310° 7 kt METAR CYEG 242119Z 31007KT 20SM BKN030TCU BKN090 14/10 A3019 RMK TCU5AC1 DIST SH NW SLP237 DENSITY ALT 2600FT
3:00 p.m.
V
52 °F 10 mi 3.000 ft 300° 300° 8 - 15 kt METAR CYEG 242100Z 30008G15KT 270V360 10SM SHRA BKN030TCU 11/08 A3020 RMK TCU7 SLP245
2:34 p.m.
V
50 °F 12 mi 3.000 ft 030° 030° 21 kt METAR CYEG 242034Z 03021KT 12SM R02/5000VP6000FT/D SHRA OVC030TCU 10/08 A3020 RMK TCU8 PRESRR SLP244
2:24 p.m.
V
54 °F 15 mi 3.000 ft 040° 040° 16 kt METAR CYEG 242024Z 04016KT 330V060 15SM -SHRA BKN030TCU OVC090 12/06 A3019 RMK TCU7AC1 PRESRR SLP240
2:00 p.m.
V
59 °F 20 mi 9.000 ft 330° 330° 15 - 21 kt METAR CYEG 242000Z 33015G21KT 20SM SCT030TCU OVC090 15/07 A3017 RMK TCU4AC4 SLP229 DENSITY ALT 2600FT
1:00 p.m.
V
61 °F 20 mi 3.000 ft 320° 320° 14 - 23 kt METAR CYEG 241900Z 32014G23KT 20SM BKN030TCU BKN070 BKN240 16/09 A3015 RMK TCU5AC2CI1 CI TR SLP221 DENSITY ALT 2800FT
12:00 p.m.
V
55 °F 20 mi 7.000 ft 330° 330° 14 - 20 kt METAR CYEG 241800Z 33014G20KT 20SM FEW020 OVC070 13/08 A3015 RMK CU1AC8 CU TR SLP223 DENSITY ALT 2400FT
11:00 a.m.
V
54 °F 20 mi 7.000 ft 330° 330° 15 - 23 kt METAR CYEG 241700Z 33015G23KT 20SM FEW015 OVC070 12/08 A3013 RMK SC1AC8 SC TR SLP219 DENSITY ALT 2400FT
10:00 a.m.
V
52 °F 20 mi 8.000 ft 320° 320° 16 kt METAR CYEG 241600Z 32016KT 20SM FEW062 OVC080 11/08 A3011 RMK SC2AC6 SLP214
9:00 a.m.
V
52 °F 20 mi 7.000 ft 340° 340° 17 kt METAR CYEG 241500Z 34017KT 20SM FEW015 OVC070 11/07 A3009 RMK SC1AC8 SC TR ACC ASOCTD SLP208
8:00 a.m.
V
50 °F 20 mi 7.000 ft 340° 340° 13 - 20 kt METAR CYEG 241400Z 34013G20KT 20SM FEW015 SCT043 BKN070 10/08 A3008 RMK SC1SC2AC4 ACC ASOCTD VIRGA W SLP201
7:00 a.m.
V
50 °F 20 mi 7.200 ft 350° 350° 15 - 20 kt METAR CYEG 241300Z 35015G20KT 20SM SCT037 BKN072 10/07 A3005 RMK SC3AC4 SLP192
6:00 a.m.
V
48 °F 20 mi 7.000 ft 340° 340° 15 - 21 kt METAR CYEG 241200Z 34015G21KT 20SM FEW020 SCT065 BKN070 09/07 A3002 RMK SC1SC3AC3 SLP183
5:00 a.m.
V
48 °F 20 mi 6.100 ft 340° 340° 14 - 22 kt METAR CYEG 241100Z 34014G22KT 20SM BKN061 BKN099 09/07 A2999 RMK SC7AC1 AC TR SLP173
4:00 a.m.
V
48 °F 20 mi 14.000 ft 350° 350° 15 - 20 kt METAR CYEG 241000Z 35015G20KT 20SM FEW017 BKN140 09/08 A2997 RMK SC1AS6 SLP164
3:26 a.m.
V
50 °F 20 mi 11.000 ft 360° 360° 17 - 22 kt METAR CYEG 240926Z 36017G22KT 20SM SCT016 BKN110 10/09 A2996 RMK SC4AS3 SLP159
3:00 a.m.
M
50 °F 15 mi 1.700 ft 350° 350° 14 - 22 kt METAR CYEG 240900Z 35014G22KT 15SM -RA BKN017 OVC061 10/09 A2995 RMK SC6SC2 SLP156 DENSITY ALT 2400FT
2:00 a.m.
M
52 °F 15 mi 2.100 ft 350° 350° 14 - 19 kt METAR CYEG 240800Z 35014G19KT 15SM -RA SCT015 BKN021 OVC061 11/10 A2993 RMK SC4SC3SC1 SLP147 DENSITY ALT 2500FT
1:00 a.m.
V
50 °F 15 mi 5.800 ft 360° 360° 12 - 18 kt METAR CYEG 240700Z 36012G18KT 15SM -RA SCT023 OVC058 10/10 A2991 RMK SC3SC5 SLP142 DENSITY ALT 2400FT
12:00 a.m.
V
50 °F 15 mi 5.000 ft 020° 020° 13 - 23 kt METAR CYEG 240600Z 02013G23KT 15SM -RA SCT015 OVC050 10/10 A2989 RMK SC4SC4 /R22/ SLP133 DENSITY ALT 2500FT

23 juni 2022

Tijd Code Weer Temp. Zicht Plafond Wind METAR/SPECI
11:00 p.m.
M
52 °F 8 mi 1.800 ft 030° 030° 18 - 26 kt METAR CYEG 240500Z 03018G26KT 8SM -RA SCT012 BKN018 OVC028 11/10 A2985 RMK SC3SC3SC2 /R20/ SLP123 DENSITY ALT 2500FT
10:42 p.m.
I
52 °F 7 mi 800 ft 040° 040° 20 kt METAR CYEG 240442Z 04020KT 7SM -RA BKN008 OVC028 11/10 A2984 RMK SF5SC3 SLP118 DENSITY ALT 2500FT
10:12 p.m.
I
52 °F 6 mi 800 ft 330° 330° 16 kt METAR CYEG 240412Z 33016KT 6SM RA BKN008 OVC013 11/10 A2982 RMK SF5SC3 SLP111 DENSITY ALT 2600FT
10:00 p.m.
M
50 °F 7 mi 2.100 ft 320° 320° 13 - 20 kt METAR CYEG 240400Z CCA 32013G20KT 7SM -RA SCT013 OVC021 10/10 A2981 RMK SC4SC4 /R10/ SLP110 DENSITY ALT 2600FT
9:40 p.m.
M
50 °F 8 mi 1.700 ft 320° 320° 15 kt METAR CYEG 240340Z 32015KT 8SM -RA SCT008 BKN017 OVC030 10/10 A2981 RMK SF4SC2SC2 WSHFT 0325 SLP110 DENSITY ALT 2500FT
9:22 p.m.
I
50 °F 6 mi 600 ft 020° 020° 8 - 15 kt METAR CYEG 240322Z 02008G15KT 330V070 6SM RA BKN006 OVC012 10/10 A2981 RMK SF6SC2 SLP110 DENSITY ALT 2500FT
9:00 p.m.
M
50 °F 5 mi 1.700 ft 310° 310° 13 - 20 kt METAR CYEG 240300Z 31013G20KT 5SM SHRA SCT008 OVC017 10/10 A2981 RMK SF4SC4 CVCTV CLD EMBD SLP108 DENSITY ALT 2500FT
8:26 p.m.
V
50 °F 6 mi 5.400 ft 310° 310° 14 - 22 kt METAR CYEG 240226Z CCA 31014G22KT 6SM SHRA SCT008 OVC054 10/10 A2980 RMK SF4SC4 CVCTV CLD EMBD SLP106 DENSITY ALT 2500FT
8:00 p.m.
M
50 °F 12 mi 2.500 ft 310° 310° 13 - 20 kt METAR CYEG 240200Z 31013G20KT 12SM -SHRA SCT008 BKN025 OVC049 10/10 A2980 RMK SF4SC2SC2 CVCTV CLD EMBD SLP106 DENSITY ALT 2500FT
7:40 p.m.
I
50 °F 12 mi 800 ft 310° 310° 12 kt METAR CYEG 240140Z 31012KT 12SM -SHRA BKN008 OVC025 10/10 A2981 RMK SF6SC2 CVCTV CLD EMBD SLP107 DENSITY ALT 2600FT
7:00 p.m.
V
50 °F 12 mi 5.500 ft 310° 310° 11 kt METAR CYEG 240100Z CCA 31011KT 12SM -SHRA FEW011 SCT025 OVC055 10/10 A2981 RMK SC1SC2SC5 CVCTV CLD EMBD SLP108 DENSITY ALT 2600FT
6:00 p.m.
M
50 °F 12 mi 2.500 ft 320° 320° 11 kt METAR CYEG 240000Z 32011KT 12SM -SHRA SCT015 BKN025 OVC055 10/10 A2982 RMK SC3SC2SC3 CVCTV CLD EMBD SLP115 DENSITY ALT 2500FT
5:25 p.m.
V
52 °F 10 mi 5.500 ft 330° 330° 9 kt METAR CYEG 232325Z 33009KT 10SM -SHRA SCT015 OVC055 11/10 A2983 RMK SC3SC5 CVCTV CLD EMBD SLP118 DENSITY ALT 2600FT
5:03 p.m.
M
54 °F 6 mi 2.000 ft 330° 330° 9 kt METAR CYEG 232303Z 33009KT 6SM SHRA FEW015 OVC020 12/10 A2984 RMK SC2SC6 CVCTV CLD EMBD SLP118 DENSITY ALT 2700FT
5:00 p.m.
M
54 °F 8 mi 2.000 ft 330° 330° 10 kt METAR CYEG 232300Z 33010KT 8SM -SHRA FEW015 OVC020 12/10 A2984 RMK SC2SC6 CVCTV CLD EMBD SLP118 DENSITY ALT 2700FT
4:00 p.m.
V
54 °F 12 mi 6.000 ft 290° 290° 9 kt METAR CYEG 232200Z 29009KT 12SM -SHRA SCT025 OVC060 12/10 A2984 RMK SC3SC5 CVCTV CLD EMBD SLP117 DENSITY ALT 2700FT
3:28 p.m.
V
54 °F 15 mi 6.000 ft 290° 290° 9 kt METAR CYEG 232128Z 29009KT 15SM -SHRA FEW015 SCT025 OVC060 12/10 A2984 RMK CU1SC3SC4 CVCTV CLD EMBD SLP118 DENSITY ALT 2700FT
3:17 p.m.
V
55 °F 15 mi 6.000 ft 270° 270° 12 kt METAR CYEG 232117Z 27012KT 15SM SHRA FEW015 OVC060 13/10 A2984 RMK CU1SC7 CVCTV CLD EMBD SLP117 DENSITY ALT 2800FT
3:00 p.m.
V
55 °F 15 mi 6.000 ft 260° 260° 11 kt METAR CYEG 232100Z 26011KT 15SM -SHRA FEW015 OVC060 13/10 A2984 RMK CU1SC7 CVCTV CLD EMBD SLP117 DENSITY ALT 2800FT
2:54 p.m.
V
55 °F 15 mi 6.000 ft 260° 260° 10 kt METAR CYEG 232054Z 26010KT 15SM -SHRA FEW015 OVC060 13/10 A2984 RMK CU1SC7 CVCTV CLD EMBD SLP117 DENSITY ALT 2800FT
2:29 p.m.
V
57 °F 20 mi 7.000 ft 260° 260° 9 kt METAR CYEG 232029Z 26009KT 20SM FEW015 SCT060 OVC070 14/10 A2983 RMK CU1SC3AS4 SLP117 DENSITY ALT 2900FT
2:00 p.m.
V
55 °F 20 mi 7.000 ft 270° 270° 8 kt METAR CYEG 232000Z 27008KT 20SM -RA FEW015 OVC070 13/10 A2983 RMK CU1AS7 SLP116 DENSITY ALT 2900FT
1:49 p.m.
V
57 °F 20 mi 7.000 ft 270° 270° 8 kt METAR CYEG 231949Z 27008KT 20SM -RA FEW015 OVC070 14/10 A2983 RMK CU1AS6 SLP117 DENSITY ALT 2900FT
1:00 p.m.
V
57 °F 20 mi 10.000 ft 290° 290° 8 kt METAR CYEG 231900Z 29008KT 20SM SCT015 BKN100 OVC130 14/10 A2984 RMK CU3AC3AS2 SLP118 DENSITY ALT 2900FT
12:00 p.m.
V
55 °F 20 mi 6.600 ft 310° 310° 8 kt METAR CYEG 231800Z 31008KT 20SM SCT015 BKN066 OVC090 13/10 A2983 RMK CU4AC3AC1 VIRGA OHD SLP113 DENSITY ALT 2900FT
11:17 a.m.
V
55 °F 20 mi 6.700 ft 310° 310° 7 kt METAR CYEG 231717Z 31007KT 20SM SCT014 BKN067 OVC080 13/11 A2982 RMK SC4AC1AC3 SLP112 DENSITY ALT 2900FT
11:00 a.m.
M
55 °F 20 mi 1.400 ft 320° 320° 8 kt METAR CYEG 231700Z 32008KT 270V330 20SM BKN014 OVC067 13/11 A2983 RMK SC6AC2 SLP114 DENSITY ALT 2800FT
10:29 a.m.
M
54 °F 20 mi 1.100 ft 290° 290° 7 kt METAR CYEG 231629Z 29007KT 270V340 20SM BKN011 BKN040 OVC067 12/11 A2982 RMK SF5CU1AC3 CU TR SLP111 DENSITY ALT 2800FT
10:15 a.m.
V
54 °F 20 mi 6.700 ft 270° 270° 7 kt METAR CYEG 231615Z 27007KT 260V340 20SM FEW009 FEW040 BKN067 12/11 A2984 RMK SF1CU1AC6 CU TR PRESRR SLP117 DENSITY ALT 2700FT
10:00 a.m.
V
54 °F 20 mi 6.700 ft 340° 340° 9 kt METAR CYEG 231600Z 34009KT 20SM FEW040 BKN067 BKN100 12/11 A2982 RMK CU1AC7AC1 CU TR AC TR OCNL -SHRA CVCTV CLD EMBD SLP111 DENSITY ALT 2700FT
9:31 a.m.
V
52 °F 15 mi 6.700 ft 270° 270° 11 kt METAR CYEG 231531Z 27011KT 15SM -SHRA BKN067 BKN100 11/10 A2983 RMK AC6AC1 SLP112 DENSITY ALT 2600FT
9:00 a.m.
V
54 °F 20 mi 6.700 ft 260° 260° 9 kt METAR CYEG 231500Z 26009KT 20SM BKN067 BKN100 12/11 A2984 RMK AC6AC1 DIST SH S SLP116 DENSITY ALT 2700FT
8:00 a.m.
V
54 °F 20 mi 6.700 ft 260° 260° 7 kt METAR CYEG 231400Z 26007KT 240V310 20SM BKN067 BKN120 12/10 A2985 RMK AC6AC1 ACC ASOCTD VIRGA OHD DIST SH S-W SLP117 DENSITY ALT 2700FT
7:00 a.m.
V
52 °F 20 mi 12.000 ft 270° 270° 7 kt METAR CYEG 231300Z 27007KT 20SM SCT070 BKN120 BKN160 11/10 A2984 RMK AC3AC2AC1 SH DIST S-W ACC ASOCTD SLP116 DENSITY ALT 2600FT
6:00 a.m.
V
46 °F 20 mi - 230° 230° 4 kt METAR CYEG 231200Z CCA 23004KT 220V290 20SM FEW030 FEW060 SCT080 SCT140 08/08 A2985 RMK SC1SC1AC3AC1 SC TR AC TR ACC ASOCTD PCPN DIST SW SLP121
5:00 a.m.
V
50 °F 20 mi 8.300 ft 040° 040° 5 kt METAR CYEG 231100Z 04005KT 20SM FEW060 BKN083 BKN250 10/09 A2984 RMK SC2AC3CI1 CI TR ACC ASOCTD SLP118 DENSITY ALT 2400FT
4:31 a.m.
V
50 °F 20 mi 8.000 ft 070° 070° 4 kt METAR CYEG 231031Z 07004KT 20SM SCT060 BKN080 10/09 A2984 RMK SC4AC2 SH DIST NW ACC ASOCTD SLP120 DENSITY ALT 2400FT
4:00 a.m.
V
50 °F 15 mi 6.000 ft 270° 270° 4 kt METAR CYEG 231000Z 27004KT 15SM -SHRA BKN060 BKN120 10/10 A2986 RMK SC7AC1 AC TR CVCTV CLD EMBD SLP126 DENSITY ALT 2500FT
3:54 a.m.
V
50 °F 20 mi 6.000 ft 280° 280° 5 kt METAR CYEG 230954Z 28005KT 20SM -SHRA BKN060 BKN120 10/10 A2986 RMK SC7AC1 AC TR SLP126 DENSITY ALT 2500FT
3:00 a.m.
V
48 °F 20 mi 5.800 ft 240° 240° 6 kt METAR CYEG 230900Z 24006KT 20SM BKN058 BKN120 BKN180 09/09 A2987 RMK SC6AC1AC1 AC TR AC TR SLP127 DENSITY ALT 2400FT
2:00 a.m.
V
45 °F 20 mi - 230° 230° 5 kt METAR CYEG 230800Z 23005KT 20SM FEW060CB FEW180 SCT250 07/07 A2986 RMK CB1AC1CI3 CB TR AC TR CB DIST SW OCNL LTNG SLP122
1:16 a.m.
V
45 °F 15 mi - 230° 230° 4 kt METAR CYEG 230716Z 23004KT 15SM R12/3500VP6000FT/U FEW180 SCT230 07/07 A2986 RMK AC1CI3 AC TR SLP124
1:00 a.m.
V
45 °F 5 mi - 260° 260° 3 kt METAR CYEG 230700Z 26003KT 5SM R02/4500VP6000FT/U R12/3500VP6000FT/U BR FEW180 SCT250 07/07 A2986 RMK AC1CI2 VIS E-S 2 SLP122
12:00 a.m.
V
50 °F 20 mi - Var 000° 0 kt METAR CYEG 230600Z 00000KT 20SM MIFG FEW060CB FEW180 SCT220 10/10 A2985 RMK CB1AC1CI2 CB TR CB DIST W OCNL LTNG SLP118 DENSITY ALT 2500FT

22 juni 2022

Tijd Code Weer Temp. Zicht Plafond Wind METAR/SPECI
11:00 p.m.
V
50 °F 20 mi - 240° 240° 4 kt METAR CYEG 230500Z 24004KT 20SM FEW060 FEW180 SCT220 10/10 A2986 RMK SC1AC1CI3 SC TR PTCHS SHLW BR SLP121 DENSITY ALT 2500FT
10:00 p.m.
V
55 °F 20 mi 22.000 ft 250° 250° 4 kt METAR CYEG 230400Z 25004KT 20SM FEW016 FEW060TCU SCT180 BKN220 13/11 A2986 RMK SC1TCU1AC3CI2 SC TR TCU TR SLP119 DENSITY ALT 2800FT
9:00 p.m.
V
57 °F 20 mi 18.000 ft 300° 300° 3 kt METAR CYEG 230300Z 30003KT 20SM FEW018 FEW060TCU BKN180 BKN250 14/12 A2986 RMK CU1TCU1AC4CI1 SH DIST NE + SE + S SLP121 DENSITY ALT 2900FT
8:00 p.m.
V
59 °F 20 mi 18.000 ft 300° 300° 3 kt METAR CYEG 230200Z 30003KT 20SM FEW020 FEW060TCU BKN180 BKN250 15/11 A2986 RMK CU1TCU1AC3CI1 SH DIST E + S + SW SLP119 DENSITY ALT 3000FT
7:00 p.m.
V
61 °F 20 mi 18.000 ft 330° 330° 8 kt METAR CYEG 230100Z 33008KT 290V360 20SM FEW020 SCT060TCU BKN180 BKN250 16/11 A2988 RMK CU1TCU2AC4CI1 CI TR VIRGA PTCHS SLP126 DENSITY ALT 3100FT
6:00 p.m.
V
59 °F 20 mi 18.000 ft 340° 340° 9 - 15 kt METAR CYEG 230000Z 34009G15KT 20SM FEW060CB BKN180 BKN250 15/12 A2988 RMK CB2AC4CI1 CB DIST NE MOV NE PRESRR SLP129 DENSITY ALT 3000FT
5:32 p.m.
V
57 °F 20 mi 18.000 ft 040° 040° 10 kt METAR CYEG 222332Z 04010KT 20SM SCT060CB BKN180 BKN250 14/13 A2985 RMK CB3AC4CI1 CI TR CB DIST NE QUAD MOV NE SLP122 DENSITY ALT 2900FT
5:12 p.m.
V
55 °F 20 mi 10.000 ft 060° 060° 12 - 20 kt METAR CYEG 222312Z 06012G20KT 20SM -SHRA SCT060CB BKN100 BKN250 13/12 A2985 RMK CB4AC3CI1 CI TR CB DIST SE MOV E PRESFR SLP122 DENSITY ALT 2800FT
5:09 p.m.
V
55 °F 20 mi 10.000 ft 060° 060° 17 kt METAR CYEG 222309Z 06017KT 20SM TSRA SCT060CB BKN100 BKN250 13/12 A2984 RMK CB4AC3CI1 CI TR CB E-SE-S MOV E OCNL LTGIC PRESFR SLP118 DENSITY ALT 2800FT
5:03 p.m.
V
54 °F 15 mi 6.000 ft 040° 040° 11 kt METAR CYEG 222303Z 04011KT 320V050 15SM +TSRA BKN060CB BKN100 BKN250 12/12 A2988 RMK CB6AC1CI1 CI TR CB E-SE-S MOV E OCNL LTGIC PRESFR SLP131 DENSITY ALT 2700FT
5:00 p.m.
V
55 °F 15 mi 6.000 ft 030° 030° 7 kt METAR CYEG 222300Z 03007KT 310V050 15SM TSRA BKN060CB BKN100 OVC250 13/12 A2989 RMK CB7AC1CI1 AC TR CB E-SE-S MOV E OCNL LTGIC PRESFR SLP137 DENSITY ALT 2700FT
4:24 p.m.
V
55 °F 10 mi 5.800 ft 320° 320° 14 - 20 kt METAR CYEG 222224Z CCA 32014G20KT 10SM TSRA FEW010 OVC058CB 13/12 A2990 RMK ST1CB7 CB E-S-W MOV NE OCNL LTGICCG SLP138 DENSITY ALT 2700FT
4:12 p.m.
M
55 °F 8 mi 1.100 ft 320° 320° 13 - 21 kt METAR CYEG 222212Z 32013G21KT 8SM TSRA BKN011 OVC057CB 13/12 A2990 RMK ST6CB2 CB SE-S-W MOV NE OCNL LTGICCG PRESRR SLP136 DENSITY ALT 2700FT
4:00 p.m.
V
55 °F 10 mi 5.700 ft 320° 320° 15 - 22 kt METAR CYEG 222200Z CCA 32015G22KT 10SM -TSRA FEW010 OVC057CB 13/12 A2988 RMK ST1CB7 CB W-S-SE MOV NE OCNL LTGICCG PRESRR SLP131 DENSITY ALT 2800FT
3:49 p.m.
V
55 °F 8 mi 5.700 ft 330° 330° 16 - 22 kt METAR CYEG 222149Z 33016G22KT 8SM TSRA FEW010 OVC057CB 13/12 A2987 RMK ST1CB7 CB E-SW MOV NE OCNL LTGICCG SLP125 DENSITY ALT 2800FT
3:21 p.m.
V
57 °F 15 mi 5.700 ft 340° 340° 13 - 19 kt METAR CYEG 222121Z 34013G19KT 15SM -TSRA BKN057CB OVC077 14/12 A2985 RMK CB7AC1 CB S MOV NE OCNL LTGIC SLP120 DENSITY ALT 2900FT
3:00 p.m.
V
57 °F 15 mi 5.100 ft 320° 320° 12 - 19 kt METAR CYEG 222100Z 32012G19KT 15SM -SHRA BKN051CB OVC077 14/11 A2985 RMK CB7AC1 CB N MOV NE SLP118 DENSITY ALT 2900FT
2:51 p.m.
V
57 °F 15 mi 5.100 ft 330° 330° 14 - 22 kt METAR CYEG 222051Z 33014G22KT 15SM -SHRA BKN051CB OVC090 14/11 A2985 RMK CB7AC1 CB N MOV NE SLP118 DENSITY ALT 3000FT
2:44 p.m.
V
59 °F 20 mi 5.100 ft 320° 320° 12 - 19 kt METAR CYEG 222044Z 32012G19KT 20SM SHRA BKN051CB BKN090 15/11 A2985 RMK CB7AC1 AC TR CB NW MOV NE SLP116 DENSITY ALT 3000FT
2:41 p.m.
V
59 °F 20 mi 5.100 ft 320° 320° 11 - 19 kt METAR CYEG 222041Z 32011G19KT 280V340 20SM -SHRA BKN051CB BKN090 15/12 A2985 RMK CB7AC1 AC TR CB NW MOV NE WSHFT 2028 SLP115 DENSITY ALT 3100FT
2:32 p.m.
V
64 °F 20 mi 5.100 ft 290° 290° 6 kt METAR CYEG 222032Z CCA 29006KT 20SM -SHRA BKN051CB BKN090 18/12 A2984 RMK CB6AC1 CB NW MOV NE SLP111 DENSITY ALT 3400FT
2:00 p.m.
V
68 °F 20 mi 5.000 ft Var 000° 0 kt METAR CYEG 222000Z 00000KT 20SM VCSH BKN050TCU BKN090 BKN140 BKN250 20/12 A2984 RMK TCU6AC1AC1CI1 AC TR CI TR SLP108 DENSITY ALT 3600FT
1:44 p.m.
V
66 °F 20 mi 5.000 ft Var Var 2 kt METAR CYEG 221944Z VRB02KT 20SM VCSH BKN050TCU BKN090 BKN140 19/10 A2984 RMK TCU6AC1AC1 AC TR SLP108 DENSITY ALT 3600FT
1:27 p.m.
V
66 °F 20 mi 4.700 ft Var Var 4 kt METAR CYEG 221927Z VRB04KT 20SM -SHRA BKN047TCU BKN081 OVC140 19/13 A2984 RMK TCU6AC1AC1 SLP109 DENSITY ALT 3600FT
1:00 p.m.
V
66 °F 20 mi 4.500 ft Var 000° 0 kt METAR CYEG 221900Z 00000KT 20SM BKN045TCU OVC090 19/11 A2985 RMK TCU7AC1 SH SW + W SLP115 DENSITY ALT 3500FT
12:00 p.m.
V
64 °F 20 mi 4.000 ft 320° 320° 3 kt METAR CYEG 221800Z 32003KT 260V010 20SM BKN040 BKN150 18/11 A2987 RMK CU7AC1 AC TR SLP120 DENSITY ALT 3400FT
11:00 a.m.
V
64 °F 20 mi 3.000 ft 340° 340° 4 kt METAR CYEG 221700Z 34004KT 310V020 20SM BKN030 BKN180 BKN250 18/11 A2987 RMK CU6AC1CI1 CI TR SLP122 DENSITY ALT 3400FT
Oudere gegevens

Installeer onze app

Gemakkelijke toegang tot al het luchtvaartweer op je mobiele telefoon en tablet.
Met veel functies die niet op de website beschikbaar zijn, zoals offline ondersteuning en een persoonlijke lijst van vliegvelden.

Met cookies volgen wij en derde partijen jouw internetgedrag binnen onze site. Als je verdergaat gaan we ervan uit dat je dit goedvindt. Meer info